Wetterstation Vordersexau
Wetterdaten: Woche 27.02.17 - 05.03.17 (KW9)
Datum Zeit Temp. A. Feuchte A. Luftdruck Regen Wind Richtung Taupunkt Windchill Windben
27.02.2017 00:00 2,6 C 78 % 1012,4 hPa 0,0 l/m 0,0 km/h O-SO -0,8 C 2,6 C 0,0 km/h
27.02.2017 01:00 1,6 C 80 % 1012,2 hPa 0,0 l/m 0,0 km/h O-SO -1,5 C 1,6 C 0,0 km/h
27.02.2017 02:00 0,9 C 81 % 1011,9 hPa 0,0 l/m 0,0 km/h O-SO -2,0 C 0,9 C 0,0 km/h
27.02.2017 03:00 1,6 C 82 % 1011,3 hPa 0,0 l/m 0,0 km/h SO -1,1 C 1,6 C 0,0 km/h
27.02.2017 04:00 0,7 C 83 % 1010,5 hPa 0,0 l/m 0,0 km/h SO -1,8 C 0,7 C 0,0 km/h
27.02.2017 05:00 0,4 C 84 % 1009,8 hPa 0,0 l/m 0,0 km/h SO -2,0 C 0,4 C 0,0 km/h
27.02.2017 06:00 0,1 C 85 % 1009,4 hPa 0,0 l/m 0,0 km/h O-SO -2,1 C 0,1 C 0,0 km/h
27.02.2017 07:00 0,2 C 86 % 1008,7 hPa 0,0 l/m 6,5 km/h O-SO -1,9 C 0,1 C 3,6 km/h
27.02.2017 08:00 0,9 C 86 % 1008,2 hPa 0,0 l/m 0,0 km/h O-SO -1,2 C 0,9 C 0,0 km/h
27.02.2017 09:00 6,9 C 83 % 1007,7 hPa 0,0 l/m 0,0 km/h O-SO 4,2 C 6,9 C 0,0 km/h
27.02.2017 10:00 17,0 C 61 % 1007,1 hPa 0,0 l/m 0,0 km/h W-SW 9,4 C 17,0 C 0,0 km/h
27.02.2017 11:00 14,8 C 59 % 1006,3 hPa 0,0 l/m 24,0 km/h S-SO 6,9 C 8,5 C 13,3 km/h
27.02.2017 12:00 16,8 C 52 % 1005,4 hPa 0,0 l/m 25,3 km/h SW 6,9 C 11,0 C 14,0 km/h
27.02.2017 13:00 17,0 C 51 % 1004,2 hPa 0,0 l/m 25,9 km/h S 6,8 C 11,2 C 14,4 km/h
27.02.2017 14:00 17,2 C 48 % 1002,3 hPa 0,0 l/m 20,1 km/h W-SW 6,1 C 12,6 C 11,2 km/h
27.02.2017 15:00 19,3 C 42 % 1001,0 hPa 0,0 l/m 18,8 km/h SW 6,1 C 15,5 C 10,4 km/h
27.02.2017 16:00 20,4 C 40 % 1000,3 hPa 0,0 l/m 23,3 km/h W 6,3 C 16,2 C 13,0 km/h
27.02.2017 17:00 17,6 C 43 % 999,3 hPa 0,0 l/m 0,0 km/h SO 4,9 C 17,6 C 0,0 km/h
27.02.2017 18:00 12,3 C 58 % 998,4 hPa 0,0 l/m 0,0 km/h S 4,3 C 12,3 C 0,0 km/h
27.02.2017 19:00 10,9 C 63 % 997,6 hPa 0,0 l/m 0,0 km/h W-SW 4,1 C 10,9 C 0,0 km/h
27.02.2017 20:00 14,5 C 50 % 996,8 hPa 0,0 l/m 7,8 km/h W-SW 4,2 C 13,7 C 4,3 km/h
27.02.2017 21:00 14,2 C 49 % 996,7 hPa 0,0 l/m 12,3 km/h SW 3,6 C 11,2 C 6,8 km/h
27.02.2017 22:00 14,6 C 48 % 996,6 hPa 0,0 l/m 20,7 km/h SW 3,7 C 9,1 C 11,5 km/h
27.02.2017 23:00 9,0 C 78 % 998,8 hPa 0,5 l/m 14,3 km/h S-SW 5,4 C 4,2 C 7,9 km/h
28.02.2017 00:00 8,9 C 76 % 997,4 hPa 0,0 l/m 11,0 km/h S-SW 4,9 C 5,8 C 6,1 km/h
28.02.2017 01:00 9,3 C 75 % 996,3 hPa 0,0 l/m 21,4 km/h S-SW 5,1 C 1,9 C 11,9 km/h
28.02.2017 02:00 6,9 C 85 % 997,8 hPa 2,1 l/m 22,7 km/h W 4,6 C -1,7 C 12,6 km/h
28.02.2017 03:00 4,2 C 85 % 998,8 hPa 5,2 l/m 0,0 km/h S 1,9 C 4,2 C 0,0 km/h
28.02.2017 04:00 3,4 C 86 % 998,7 hPa 2,6 l/m 7,1 km/h S 1,3 C 2,7 C 4,0 km/h
28.02.2017 05:00 2,8 C 86 % 999,4 hPa 1,0 l/m 6,5 km/h S 0,7 C 2,7 C 3,6 km/h
28.02.2017 06:00 3,5 C 86 % 999,0 hPa 0,5 l/m 15,6 km/h SW 1,4 C -3,1 C 8,6 km/h
28.02.2017 07:00 4,2 C 84 % 998,8 hPa 0,0 l/m 8,4 km/h SW 1,7 C 2,4 C 4,7 km/h
28.02.2017 08:00 5,4 C 79 % 998,8 hPa 0,0 l/m 18,1 km/h S-SO 2,1 C -1,9 C 10,1 km/h
28.02.2017 09:00 6,5 C 76 % 998,7 hPa 0,0 l/m 0,0 km/h W-SW 2,6 C 6,5 C 0,0 km/h
28.02.2017 10:00 7,9 C 70 % 997,3 hPa 0,0 l/m 11,0 km/h W 2,8 C 4,7 C 6,1 km/h
28.02.2017 11:00 6,6 C 74 % 996,7 hPa 0,0 l/m 19,4 km/h SO 2,3 C -0,9 C 10,8 km/h
28.02.2017 12:00 7,7 C 75 % 994,4 hPa 0,0 l/m 0,0 km/h SO 3,6 C 7,7 C 0,0 km/h
28.02.2017 13:00 7,6 C 79 % 992,7 hPa 0,5 l/m 0,6 km/h W 4,2 C 7,6 C 0,4 km/h
28.02.2017 14:00 6,6 C 84 % 992,3 hPa 1,6 l/m 32,4 km/h S-SO 4,1 C -4,7 C 18,0 km/h
28.02.2017 15:00 4,8 C 86 % 993,5 hPa 2,6 l/m 18,8 km/h SW 2,7 C -2,9 C 10,4 km/h
28.02.2017 16:00 5,8 C 84 % 993,6 hPa 0,0 l/m 16,2 km/h S-SW 3,3 C -0,5 C 9,0 km/h
28.02.2017 17:00 6,4 C 79 % 994,5 hPa 0,0 l/m 13,0 km/h W-SW 3,0 C 1,8 C 7,2 km/h
28.02.2017 18:00 6,9 C 77 % 995,7 hPa 0,0 l/m 35,0 km/h S-SW 3,2 C -4,8 C 19,4 km/h
28.02.2017 19:00 5,8 C 78 % 996,8 hPa 0,0 l/m 20,1 km/h W 2,3 C -2,2 C 11,2 km/h
28.02.2017 20:00 6,4 C 78 % 997,3 hPa 0,0 l/m 29,2 km/h W-SW 2,8 C -4,2 C 16,2 km/h
28.02.2017 21:00 5,0 C 85 % 1000,0 hPa 0,5 l/m 16,8 km/h SW 2,7 C -1,8 C 9,4 km/h
28.02.2017 22:00 5,2 C 82 % 1001,3 hPa 0,0 l/m 18,8 km/h SW 2,4 C -2,4 C 10,4 km/h
28.02.2017 23:00 5,1 C 81 % 1002,4 hPa 0,0 l/m 7,8 km/h SW 2,1 C 3,9 C 4,3 km/h
01.03.2017 00:00 5,1 C 80 % 1003,0 hPa 0,0 l/m 6,5 km/h S 1,9 C 5,0 C 3,6 km/h
01.03.2017 01:00 5,1 C 80 % 1003,4 hPa 0,0 l/m 17,5 km/h S-SW 1,9 C -2,0 C 9,7 km/h
01.03.2017 02:00 5,3 C 77 % 1003,3 hPa 0,0 l/m 26,6 km/h W 1,6 C -5,0 C 14,8 km/h
01.03.2017 03:00 5,3 C 77 % 1003,0 hPa 0,0 l/m 26,6 km/h W-SW 1,6 C -5,0 C 14,8 km/h
01.03.2017 04:00 5,1 C 79 % 1003,5 hPa 0,0 l/m 16,2 km/h SW 1,8 C -1,4 C 9,0 km/h
01.03.2017 05:00 4,9 C 80 % 1004,2 hPa 0,0 l/m 11,0 km/h S-SW 1,7 C 1,3 C 6,1 km/h
01.03.2017 06:00 4,9 C 80 % 1005,0 hPa 0,0 l/m 22,0 km/h SW 1,7 C -4,1 C 12,2 km/h
01.03.2017 07:00 5,2 C 81 % 1005,6 hPa 0,0 l/m 48,6 km/h S-SW 2,2 C -9,5 C 27,0 km/h
01.03.2017 08:00 5,4 C 80 % 1006,5 hPa 0,0 l/m 51,2 km/h S-SW 2,2 C -9,5 C 28,4 km/h
01.03.2017 09:00 6,5 C 78 % 1006,9 hPa 0,0 l/m 14,3 km/h W 2,9 C 1,2 C 7,9 km/h
01.03.2017 10:00 6,5 C 77 % 1007,5 hPa 0,0 l/m 20,7 km/h W-SW 2,8 C -1,5 C 11,5 km/h
01.03.2017 11:00 7,6 C 73 % 1007,4 hPa 0,0 l/m 22,0 km/h SW 3,1 C -0,5 C 12,2 km/h
01.03.2017 12:00 9,5 C 68 % 1007,9 hPa 0,0 l/m 26,6 km/h W 3,9 C 0,7 C 14,8 km/h
01.03.2017 13:00 8,9 C 72 % 1007,2 hPa 0,0 l/m 34,3 km/h W 4,1 C -1,8 C 19,1 km/h
01.03.2017 14:00 8,8 C 74 % 1006,9 hPa 0,0 l/m 29,8 km/h S-SW 4,4 C -1,0 C 16,6 km/h
01.03.2017 15:00 8,5 C 73 % 1006,9 hPa 0,0 l/m 23,3 km/h SW 3,9 C 0,3 C 13,0 km/h
01.03.2017 16:00 8,3 C 74 % 1007,0 hPa 0,0 l/m 25,9 km/h W-SW 3,9 C -0,7 C 14,4 km/h
01.03.2017 17:00 7,8 C 75 % 1006,6 hPa 0,0 l/m 13,0 km/h W-SW 3,7 C 3,4 C 7,2 km/h
01.03.2017 18:00 6,9 C 77 % 1006,5 hPa 0,0 l/m 11,0 km/h SW 3,2 C 3,5 C 6,1 km/h
01.03.2017 19:00 6,7 C 79 % 1006,4 hPa 0,0 l/m 0,0 km/h SW 3,3 C 6,7 C 0,0 km/h
01.03.2017 20:00 8,4 C 77 % 1005,6 hPa 0,0 l/m 21,4 km/h W 4,6 C 0,7 C 11,9 km/h
01.03.2017 21:00 9,1 C 76 % 1005,1 hPa 0,0 l/m 5,8 km/h W-SW 5,1 C 9,1 C 3,2 km/h
01.03.2017 22:00 9,6 C 77 % 1004,9 hPa 0,0 l/m 33,0 km/h W-SW 5,8 C -0,5 C 18,4 km/h
01.03.2017 23:00 10,0 C 77 % 1005,0 hPa 0,0 l/m 36,9 km/h W-SW 6,2 C -0,6 C 20,5 km/h
02.03.2017 00:00 8,8 C 83 % 1005,3 hPa 0,0 l/m 31,1 km/h S-SW 6,1 C -1,3 C 17,3 km/h
02.03.2017 01:00 9,1 C 83 % 1005,4 hPa 0,5 l/m 29,8 km/h W 6,4 C -0,6 C 16,6 km/h
02.03.2017 02:00 9,8 C 80 % 1005,9 hPa 0,0 l/m 38,2 km/h S-SW 6,5 C -1,1 C 21,2 km/h
02.03.2017 03:00 9,8 C 81 % 1006,1 hPa 0,0 l/m 17,5 km/h SW 6,7 C 3,9 C 9,7 km/h
02.03.2017 04:00 9,8 C 82 % 1006,3 hPa 0,0 l/m 20,7 km/h W 6,9 C 2,8 C 11,5 km/h
02.03.2017 05:00 8,9 C 85 % 1007,6 hPa 0,0 l/m 16,8 km/h S-SW 6,5 C 3,0 C 9,4 km/h
02.03.2017 06:00 6,9 C 83 % 1009,5 hPa 2,6 l/m 0,0 km/h W 4,2 C 6,9 C 0,0 km/h
02.03.2017 07:00 6,8 C 82 % 1010,3 hPa 0,0 l/m 0,0 km/h N-NW 3,9 C 6,8 C 0,0 km/h
02.03.2017 08:00 6,1 C 84 % 1011,4 hPa 0,0 l/m 0,0 km/h W-SW 3,6 C 6,1 C 0,0 km/h
02.03.2017 09:00 10,1 C 74 % 1013,3 hPa 0,0 l/m 27,2 km/h W 5,7 C 1,4 C 15,1 km/h
02.03.2017 10:00 11,9 C 68 % 1014,0 hPa 0,0 l/m 11,0 km/h W 6,2 C 9,2 C 6,1 km/h
02.03.2017 11:00 11,9 C 62 % 1014,8 hPa 0,0 l/m 17,5 km/h W-SW 4,9 C 6,5 C 9,7 km/h
02.03.2017 12:00 13,3 C 54 % 1015,1 hPa 0,0 l/m 21,4 km/h W 4,2 C 7,2 C 11,9 km/h
02.03.2017 13:00 13,5 C 53 % 1014,9 hPa 0,0 l/m 20,7 km/h W-SW 4,1 C 7,6 C 11,5 km/h
02.03.2017 14:00 13,8 C 48 % 1014,5 hPa 0,0 l/m 33,0 km/h W 3,0 C 5,5 C 18,4 km/h
02.03.2017 15:00 14,4 C 45 % 1014,5 hPa 0,0 l/m 22,7 km/h W-NW 2,6 C 8,3 C 12,6 km/h
02.03.2017 16:00 14,2 C 45 % 1015,4 hPa 0,0 l/m 22,0 km/h W 2,4 C 8,2 C 12,2 km/h
02.03.2017 17:00 11,0 C 50 % 1015,5 hPa 0,0 l/m 24,6 km/h W-SW 1,0 C 3,3 C 13,7 km/h
02.03.2017 18:00 8,9 C 53 % 1015,8 hPa 0,0 l/m 12,3 km/h W-SW -0,1 C 5,1 C 6,8 km/h
02.03.2017 19:00 7,0 C 59 % 1016,4 hPa 0,0 l/m 0,0 km/h S -0,5 C 7,0 C 0,0 km/h
02.03.2017 20:00 4,9 C 65 % 1016,6 hPa 0,0 l/m 0,0 km/h NO -1,1 C 4,9 C 0,0 km/h
02.03.2017 21:00 3,5 C 72 % 1016,9 hPa 0,0 l/m 0,0 km/h O-SO -1,1 C 3,5 C 0,0 km/h
02.03.2017 22:00 2,7 C 76 % 1016,8 hPa 0,0 l/m 0,0 km/h O -1,1 C 2,7 C 0,0 km/h
02.03.2017 23:00 2,7 C 78 % 1016,3 hPa 0,0 l/m 0,0 km/h SO -0,7 C 2,7 C 0,0 km/h
03.03.2017 00:00 1,9 C 79 % 1015,9 hPa 0,0 l/m 2,6 km/h O-SO -1,3 C 1,9 C 1,4 km/h
03.03.2017 01:00 1,6 C 80 % 1014,8 hPa 0,0 l/m 0,0 km/h SO -1,5 C 1,6 C 0,0 km/h
03.03.2017 02:00 1,5 C 81 % 1014,8 hPa 0,0 l/m 18,8 km/h O-SO -1,4 C -7,1 C 10,4 km/h
03.03.2017 03:00 1,8 C 80 % 1014,1 hPa 0,0 l/m 0,0 km/h O-SO -1,3 C 1,8 C 0,0 km/h
03.03.2017 04:00 1,4 C 80 % 1013,4 hPa 0,0 l/m 0,0 km/h O-SO -1,7 C 1,4 C 0,0 km/h
03.03.2017 05:00 0,6 C 81 % 1013,1 hPa 0,0 l/m 0,0 km/h O -2,3 C 0,6 C 0,0 km/h
03.03.2017 06:00 -0,3 C 82 % 1011,9 hPa 0,0 l/m 0,0 km/h O -3,0 C -0,3 C 0,0 km/h
03.03.2017 07:00 -1,1 C 84 % 1011,2 hPa 0,0 l/m 0,0 km/h NO -3,4 C -1,1 C 0,0 km/h
03.03.2017 08:00 0,4 C 84 % 1010,8 hPa 0,0 l/m 0,0 km/h O -2,0 C 0,4 C 0,0 km/h
03.03.2017 09:00 3,3 C 83 % 1010,3 hPa 0,0 l/m 0,0 km/h SO 0,7 C 3,3 C 0,0 km/h
03.03.2017 10:00 8,2 C 72 % 1008,9 hPa 0,0 l/m 0,0 km/h W 3,5 C 8,2 C 0,0 km/h
03.03.2017 11:00 12,3 C 57 % 1008,4 hPa 0,0 l/m 0,0 km/h W-SW 4,0 C 12,3 C 0,0 km/h
03.03.2017 12:00 14,7 C 53 % 1007,4 hPa 0,0 l/m 0,0 km/h W 5,2 C 14,7 C 0,0 km/h
03.03.2017 13:00 14,6 C 52 % 1006,1 hPa 0,0 l/m 0,0 km/h SW 4,9 C 14,6 C 0,0 km/h
03.03.2017 14:00 17,6 C 48 % 1004,6 hPa 0,0 l/m 0,0 km/h W 6,5 C 17,6 C 0,0 km/h
03.03.2017 15:00 17,7 C 47 % 1003,4 hPa 0,0 l/m 0,0 km/h W-NW 6,2 C 17,7 C 0,0 km/h
03.03.2017 16:00 15,2 C 52 % 1002,7 hPa 0,0 l/m 0,0 km/h NW 5,4 C 15,2 C 0,0 km/h
03.03.2017 17:00 12,6 C 58 % 1001,9 hPa 0,0 l/m 0,0 km/h O-NO 4,6 C 12,6 C 0,0 km/h
03.03.2017 18:00 9,8 C 67 % 1001,7 hPa 0,0 l/m 0,0 km/h O-NO 4,0 C 9,8 C 0,0 km/h
03.03.2017 19:00 7,6 C 73 % 1001,0 hPa 0,0 l/m 0,0 km/h O-NO 3,1 C 7,6 C 0,0 km/h
03.03.2017 20:00 6,8 C 77 % 1000,4 hPa 0,0 l/m 0,0 km/h O-SO 3,1 C 6,8 C 0,0 km/h
03.03.2017 21:00 6,1 C 78 % 999,6 hPa 0,0 l/m 0,0 km/h O-NO 2,6 C 6,1 C 0,0 km/h
03.03.2017 22:00 4,4 C 80 % 999,3 hPa 0,0 l/m 0,0 km/h O-NO 1,3 C 4,4 C 0,0 km/h
03.03.2017 23:00 4,2 C 83 % 999,1 hPa 0,0 l/m 0,0 km/h O-NO 1,6 C 4,2 C 0,0 km/h
04.03.2017 00:00 3,4 C 84 % 998,8 hPa 0,0 l/m 0,0 km/h O-NO 1,0 C 3,4 C 0,0 km/h
04.03.2017 01:00 2,8 C 84 % 998,5 hPa 0,0 l/m 0,0 km/h O-NO 0,4 C 2,8 C 0,0 km/h
04.03.2017 02:00 2,6 C 85 % 998,3 hPa 0,0 l/m 0,0 km/h O-NO 0,3 C 2,6 C 0,0 km/h
04.03.2017 03:00 2,2 C 86 % 997,4 hPa 0,0 l/m 0,0 km/h O-NO 0,1 C 2,2 C 0,0 km/h
04.03.2017 04:00 2,2 C 86 % 996,4 hPa 0,0 l/m 0,0 km/h O-NO 0,1 C 2,2 C 0,0 km/h
04.03.2017 05:00 1,4 C 86 % 995,7 hPa 0,0 l/m 0,0 km/h O-NO -0,7 C 1,4 C 0,0 km/h
04.03.2017 06:00 0,6 C 86 % 995,4 hPa 0,0 l/m 0,0 km/h O-NO -1,5 C 0,6 C 0,0 km/h
04.03.2017 07:00 0,4 C 86 % 994,5 hPa 0,0 l/m 0,0 km/h O-SO -1,7 C 0,4 C 0,0 km/h
04.03.2017 08:00 1,8 C 86 % 993,6 hPa 0,0 l/m 0,0 km/h O-SO -0,3 C 1,8 C 0,0 km/h
04.03.2017 09:00 4,1 C 86 % 992,2 hPa 0,0 l/m 0,0 km/h W-NW 2,0 C 4,1 C 0,0 km/h
04.03.2017 10:00 5,0 C 85 % 991,9 hPa 0,0 l/m 0,0 km/h NW 2,7 C 5,0 C 0,0 km/h
04.03.2017 11:00 6,6 C 83 % 990,8 hPa 0,0 l/m 0,0 km/h NW 3,9 C 6,6 C 0,0 km/h
04.03.2017 12:00 10,8 C 72 % 989,0 hPa 0,0 l/m 1,9 km/h W 6,0 C 10,8 C 1,1 km/h
04.03.2017 13:00 12,3 C 68 % 989,6 hPa 0,0 l/m 7,1 km/h SW 6,6 C 11,8 C 4,0 km/h
04.03.2017 14:00 13,8 C 65 % 988,6 hPa 0,0 l/m 0,0 km/h S-SO 7,3 C 13,8 C 0,0 km/h
04.03.2017 15:00 12,5 C 62 % 991,5 hPa 0,0 l/m 16,2 km/h W-SW 5,4 C 7,7 C 9,0 km/h
04.03.2017 16:00 10,8 C 66 % 993,1 hPa 0,0 l/m 20,1 km/h SW 4,7 C 4,3 C 11,2 km/h
04.03.2017 17:00 9,9 C 67 % 993,6 hPa 0,0 l/m 8,4 km/h SO 4,1 C 8,5 C 4,7 km/h
04.03.2017 18:00 7,2 C 79 % 995,0 hPa 0,0 l/m 0,0 km/h SO 3,8 C 7,2 C 0,0 km/h
04.03.2017 19:00 6,1 C 84 % 995,8 hPa 1,0 l/m 24,0 km/h SW 3,6 C -3,1 C 13,3 km/h
04.03.2017 20:00 7,6 C 79 % 997,5 hPa 0,0 l/m 21,4 km/h W-SW 4,2 C -0,3 C 11,9 km/h
04.03.2017 21:00 7,2 C 79 % 999,5 hPa 0,0 l/m 35,6 km/h S-SW 3,8 C -4,5 C 19,8 km/h
04.03.2017 22:00 7,1 C 76 % 1000,3 hPa 0,0 l/m 20,7 km/h S-SW 3,2 C -0,7 C 11,5 km/h
04.03.2017 23:00 6,6 C 76 % 1000,8 hPa 0,0 l/m 20,1 km/h S-SW 2,7 C -1,1 C 11,2 km/h
05.03.2017 00:00 6,4 C 77 % 1001,4 hPa 0,0 l/m 7,8 km/h S-SW 2,7 C 5,2 C 4,3 km/h
05.03.2017 01:00 6,8 C 76 % 1002,1 hPa 0,0 l/m 7,1 km/h W-SW 2,9 C 6,2 C 4,0 km/h
05.03.2017 02:00 6,8 C 75 % 1002,1 hPa 0,0 l/m 24,6 km/h SW 2,7 C -2,4 C 13,7 km/h
05.03.2017 03:00 6,7 C 76 % 1002,7 hPa 0,0 l/m 24,0 km/h SW 2,8 C -2,3 C 13,3 km/h
05.03.2017 04:00 6,2 C 79 % 1003,4 hPa 0,0 l/m 18,1 km/h S-SW 2,8 C -0,9 C 10,1 km/h
05.03.2017 05:00 6,0 C 79 % 1003,7 hPa 0,0 l/m 11,7 km/h SW 2,6 C 2,1 C 6,5 km/h
05.03.2017 06:00 5,9 C 78 % 1004,5 hPa 0,0 l/m 11,0 km/h SW 2,4 C 2,4 C 6,1 km/h
05.03.2017 07:00 6,4 C 76 % 1005,2 hPa 0,0 l/m 22,7 km/h W-SW 2,5 C -2,3 C 12,6 km/h
05.03.2017 08:00 7,0 C 75 % 1005,4 hPa 0,0 l/m 11,0 km/h W-SW 2,9 C 3,6 C 6,1 km/h
05.03.2017 09:00 7,8 C 72 % 1005,0 hPa 0,0 l/m 7,8 km/h W 3,1 C 6,7 C 4,3 km/h
05.03.2017 10:00 10,2 C 65 % 1004,6 hPa 0,0 l/m 24,0 km/h W-SW 3,9 C 2,4 C 13,3 km/h
05.03.2017 11:00 11,2 C 63 % 1003,5 hPa 0,0 l/m 28,5 km/h S-SW 4,4 C 2,7 C 15,8 km/h
05.03.2017 12:00 13,2 C 57 % 1002,0 hPa 0,0 l/m 3,2 km/h W 4,9 C 13,2 C 1,8 km/h
05.03.2017 13:00 14,4 C 52 % 1000,6 hPa 0,0 l/m 0,0 km/h W-SW 4,7 C 14,4 C 0,0 km/h
05.03.2017 14:00 12,6 C 55 % 999,9 hPa 0,0 l/m 8,4 km/h W-NW 3,8 C 11,3 C 4,7 km/h
05.03.2017 15:00 9,4 C 62 % 1000,3 hPa 0,0 l/m 17,5 km/h S-SW 2,5 C 3,4 C 9,7 km/h
05.03.2017 16:00 5,6 C 82 % 1000,5 hPa 1,0 l/m 0,0 km/h W 2,8 C 5,6 C 0,0 km/h
05.03.2017 17:00 6,1 C 84 % 1001,2 hPa 0,0 l/m 13,6 km/h SW 3,6 C 1,1 C 7,6 km/h
05.03.2017 18:00 6,5 C 82 % 1001,2 hPa 0,0 l/m 18,8 km/h W-SW 3,7 C -0,8 C 10,4 km/h
05.03.2017 19:00 7,3 C 78 % 1000,9 hPa 0,0 l/m 42,1 km/h W-SW 3,7 C -5,4 C 23,4 km/h
05.03.2017 20:00 7,3 C 78 % 1001,0 hPa 0,0 l/m 24,0 km/h SW 3,7 C -1,5 C 13,3 km/h
05.03.2017 21:00 5,8 C 84 % 1001,8 hPa 0,5 l/m 22,7 km/h W-SW 3,3 C -3,1 C 12,6 km/h
05.03.2017 22:00 5,9 C 81 % 1003,2 hPa 0,0 l/m 18,8 km/h SW 2,9 C -1,5 C 10,4 km/h
05.03.2017 23:00 6,3 C 80 % 1003,8 hPa 0,0 l/m 18,8 km/h W-SW 3,1 C -1,0 C 10,4 km/h
Min-Datum _ 03.03.17 27.02.17 04.03.17 - 27.02.17 - 03.03.17 01.03.17 27.02.17
_ Min-Zeit 07:01 16:01 14:01 - 00:01 - 07:01 08:01 00:01
Minimum _ -1,1 C 40 % 988,6 hPa - 0,0 km/h - -3,4 C -9,5 C 0,0 km/h
Max-Datum _ 27.02.17 27.02.17 02.03.17 28.02.17 01.03.17 - 27.02.17 03.03.17 01.03.17
_ Max-Zeit 16:01 07:01 21:01 03:01 08:01 - 10:01 15:01 08:01
Maximum _ 20,4 C 86 % 1016,9 hPa 5,2 l/m 51,2 km/h
S-SW
- 9,4 C 17,7 C 28,4 km/h
S-SW
Durchschnitt _ 7,5 C 74 % 1003,5 hPa #22,8 l/m 12,2 km/h W-SW 2,8 C 3,6 C 6,8 km/h
www.sexauwetter.de